Time;durP1;ratioP1;P1;durP2;ratioP2;P2;SDS_P1;SDS_P2;PMS_P1;PMS_P2;Temp;Humidity;BMP_temperature;BMP_pressure;BME280_temperature;BME280_humidity;BME280_pressure;Samples;Min_cycle;Max_cycle;Signal;HPM_P1;HPM_P2
2022/04/19 00:00:38;;;;;;;6.13;4.60;;;5.80;72.90;;;;;;4978808;28;20689;-89
2022/04/19 00:03:05;;;;;;;8.33;4.30;;;5.80;72.70;;;;;;4978740;28;20208;-90
2022/04/19 00:05:32;;;;;;;6.73;4.23;;;5.80;72.50;;;;;;4979509;28;20743;-90
2022/04/19 00:07:59;;;;;;;6.37;4.10;;;5.80;72.60;;;;;;4978762;28;20184;-90
2022/04/19 00:10:28;;;;;;;6.63;4.57;;;5.80;72.60;;;;;;4978991;28;20181;-90
2022/04/19 00:12:57;;;;;;;6.60;4.40;;;5.70;72.60;;;;;;4978691;28;20225;-90
2022/04/19 00:15:28;;;;;;;5.47;4.83;;;5.60;72.80;;;;;;4978566;28;20208;-90
2022/04/19 00:17:58;;;;;;;7.47;4.90;;;5.60;73.10;;;;;;4979118;28;20182;-90
2022/04/19 00:20:24;;;;;;;9.43;4.93;;;5.60;73.20;;;;;;4978566;28;20277;-90
2022/04/19 00:22:50;;;;;;;8.87;4.93;;;5.50;73.40;;;;;;4978434;28;20211;-90
2022/04/19 00:25:16;;;;;;;7.67;4.97;;;5.50;73.60;;;;;;4978326;28;20648;-90
2022/04/19 00:27:42;;;;;;;7.30;4.47;;;5.40;73.80;;;;;;4978643;28;20269;-89
2022/04/19 00:30:08;;;;;;;8.60;4.90;;;5.40;73.90;;;;;;4978396;28;20257;-90
2022/04/19 00:32:35;;;;;;;6.77;5.40;;;5.40;74.00;;;;;;4978165;28;20234;-90
2022/04/19 00:35:12;;;;;;;4.63;3.80;;;5.50;74.00;;;;;;4978499;28;20580;-90
2022/04/19 00:37:39;;;;;;;6.97;4.97;;;5.50;73.80;;;;;;4978068;28;20559;-89
2022/04/19 00:40:07;;;;;;;7.90;5.30;;;5.50;73.80;;;;;;4995579;28;20185;-90
2022/04/19 00:42:34;;;;;;;6.57;4.77;;;5.70;73.80;;;;;;4978580;28;20287;-89
2022/04/19 00:45:05;;;;;;;8.67;4.87;;;5.70;73.80;;;;;;4978218;28;20239;-89
2022/04/19 00:47:32;;;;;;;8.27;4.90;;;5.60;73.90;;;;;;4978616;28;20180;-90
2022/04/19 00:50:02;;;;;;;5.67;4.53;;;5.60;73.90;;;;;;4977990;28;20189;-90
2022/04/19 00:52:32;;;;;;;8.10;4.63;;;5.50;73.90;;;;;;4977925;28;20226;-90
2022/04/19 00:54:59;;;;;;;5.63;4.63;;;5.50;73.70;;;;;;4977966;28;20222;-90
2022/04/19 00:57:26;;;;;;;7.73;5.17;;;5.40;73.30;;;;;;4978189;28;20192;-90
2022/04/19 00:59:56;;;;;;;6.33;4.80;;;5.40;73.40;;;;;;4994984;28;20268;-90
2022/04/19 01:02:23;;;;;;;6.17;4.47;;;5.40;73.20;;;;;;4977322;28;20208;-90
2022/04/19 01:04:55;;;;;;;7.60;4.53;;;5.40;72.90;;;;;;4994995;28;20304;-90
2022/04/19 01:07:22;;;;;;;8.37;4.70;;;5.40;72.60;;;;;;4995341;28;20157;-90
2022/04/19 01:09:48;;;;;;;7.30;4.70;;;5.30;72.50;;;;;;4977933;28;20596;-90
2022/04/19 01:15:06;;;;;;;7.67;4.83;;;5.20;73.50;;;;;;4995437;28;20212;-90
2022/04/19 01:17:34;;;;;;;4.97;4.47;;;5.30;74.00;;;;;;4977843;28;20303;-90
2022/04/19 01:20:03;;;;;;;7.13;5.23;;;5.20;74.70;;;;;;4994815;28;20664;-90
2022/04/19 01:22:39;;;;;;;10.53;5.37;;;5.10;75.40;;;;;;4977230;28;20286;-90
2022/04/19 01:25:06;;;;;;;8.63;5.00;;;5.10;75.70;;;;;;4977263;28;20202;-90
2022/04/19 01:27:32;;;;;;;9.10;5.57;;;5.10;76.00;;;;;;4977900;28;20179;-90
2022/04/19 01:30:01;;;;;;;7.17;5.10;;;5.00;76.20;;;;;;4977420;28;20187;-90
2022/04/19 01:32:30;;;;;;;6.00;5.17;;;4.80;76.60;;;;;;4977201;28;20241;-90
2022/04/19 01:35:10;;;;;;;6.70;4.87;;;4.80;77.10;;;;;;4977433;28;20699;-90
2022/04/19 01:37:38;;;;;;;6.80;5.87;;;4.80;77.20;;;;;;4977662;28;20171;-90
2022/04/19 01:40:17;;;;;;;8.13;4.83;;;4.80;77.10;;;;;;4977042;28;20175;-90
2022/04/19 01:42:47;;;;;;;6.63;5.10;;;4.80;77.00;;;;;;4976973;28;20642;-90
2022/04/19 01:45:18;;;;;;;7.17;4.73;;;4.90;76.80;;;;;;4976868;28;20201;-90
2022/04/19 01:47:44;;;;;;;8.53;4.67;;;4.80;76.40;;;;;;4976983;28;20173;-90
2022/04/19 01:50:12;;;;;;;5.27;4.37;;;4.80;75.80;;;;;;4976794;28;20180;-90
2022/04/19 01:52:39;;;;;;;6.40;4.80;;;4.80;75.80;;;;;;4976820;28;20204;-90
2022/04/19 01:55:06;;;;;;;5.17;4.37;;;4.70;75.60;;;;;;4976693;28;20678;-90
2022/04/19 01:57:32;;;;;;;6.30;5.13;;;4.70;75.40;;;;;;4977333;28;20233;-90
2022/04/19 01:59:57;;;;;;;6.87;4.90;;;4.70;75.20;;;;;;4994126;28;20168;-90
2022/04/19 02:02:23;;;;;;;6.47;4.43;;;4.60;75.00;;;;;;4994169;28;20544;-90
2022/04/19 02:04:50;;;;;;;13.03;4.80;;;4.60;74.80;;;;;;4976477;28;20235;-90
2022/04/19 02:07:16;;;;;;;6.20;4.27;;;4.60;74.60;;;;;;4976836;28;20244;-90
2022/04/19 02:09:42;;;;;;;6.70;5.17;;;4.50;74.40;;;;;;4976655;28;20183;-90
2022/04/19 02:12:08;;;;;;;5.60;4.97;;;4.40;74.40;;;;;;4975773;28;20208;-90
2022/04/19 02:14:33;;;;;;;5.47;4.27;;;4.30;75.30;;;;;;4976493;28;20200;-90
2022/04/19 02:16:59;;;;;;;9.17;4.83;;;4.30;75.20;;;;;;4976703;28;20181;-90
2022/04/19 02:19:24;;;;;;;5.97;4.83;;;4.30;75.00;;;;;;4993883;28;20170;-90
2022/04/19 02:21:50;;;;;;;6.23;4.97;;;4.20;75.10;;;;;;4976604;28;20557;-90
2022/04/19 02:24:15;;;;;;;7.43;6.03;;;4.20;75.40;;;;;;4976422;28;20349;-90
2022/04/19 02:26:41;;;;;;;6.87;5.67;;;4.30;76.40;;;;;;4976500;28;20182;-90
2022/04/19 02:29:06;;;;;;;9.47;6.40;;;4.10;77.60;;;;;;4976482;28;20177;-90
2022/04/19 02:31:32;;;;;;;7.20;5.97;;;4.00;78.40;;;;;;4976871;28;20236;-90
2022/04/19 02:33:58;;;;;;;7.70;6.00;;;3.80;78.90;;;;;;4976385;28;20197;-90
2022/04/19 02:36:25;;;;;;;11.57;6.07;;;3.70;79.40;;;;;;4994076;28;20265;-90
2022/04/19 02:38:51;;;;;;;7.70;5.83;;;3.80;79.70;;;;;;4976475;28;20223;-90
2022/04/19 02:41:16;;;;;;;6.33;5.23;;;3.90;79.70;;;;;;4977361;28;20210;-90
2022/04/19 02:43:42;;;;;;;7.60;5.80;;;4.00;79.70;;;;;;4977082;28;20182;-90
2022/04/19 02:46:07;;;;;;;9.73;6.20;;;4.00;79.80;;;;;;4976350;28;20182;-89
2022/04/19 02:48:34;;;;;;;7.23;5.17;;;4.10;79.80;;;;;;4977039;28;20182;-90
2022/04/19 02:51:00;;;;;;;6.27;5.33;;;4.10;79.60;;;;;;4976276;28;20225;-90
2022/04/19 02:53:26;;;;;;;6.80;5.73;;;4.00;79.30;;;;;;4977066;28;20233;-90
2022/04/19 02:55:52;;;;;;;6.50;4.73;;;4.00;79.20;;;;;;4976604;28;20288;-90
2022/04/19 02:58:17;;;;;;;8.87;5.80;;;4.00;79.10;;;;;;4976209;28;20626;-90
2022/04/19 03:00:43;;;;;;;8.40;5.90;;;3.90;78.60;;;;;;4976233;28;20182;-90
2022/04/19 03:03:12;;;;;;;9.17;5.43;;;4.00;78.80;;;;;;4976120;28;20216;-90
2022/04/19 03:05:40;;;;;;;8.40;5.53;;;4.00;78.50;;;;;;4976124;28;20229;-90
2022/04/19 03:08:06;;;;;;;9.10;5.10;;;3.90;78.50;;;;;;4976119;28;20599;-89
2022/04/19 03:10:32;;;;;;;7.67;5.87;;;3.90;78.10;;;;;;4976141;28;20225;-90
2022/04/19 03:12:57;;;;;;;8.57;5.33;;;3.90;78.20;;;;;;4975975;28;20237;-90
2022/04/19 03:15:23;;;;;;;8.87;5.87;;;4.00;78.40;;;;;;4975944;28;20241;-90
2022/04/19 03:17:49;;;;;;;8.03;6.33;;;4.10;78.50;;;;;;4976167;28;20693;-90
2022/04/19 03:20:15;;;;;;;7.40;5.87;;;4.10;78.40;;;;;;4976389;28;20183;-90
2022/04/19 03:28:09;;;;;;;8.60;6.30;;;4.10;79.00;;;;;;4997579;28;20585;-90
2022/04/19 03:30:35;;;;;;;13.20;5.97;;;4.10;79.10;;;;;;4979800;28;20182;-90
2022/04/19 03:33:01;;;;;;;8.07;5.37;;;4.10;79.00;;;;;;4979349;28;20693;-90
2022/04/19 03:35:26;;;;;;;10.07;5.50;;;4.00;79.00;;;;;;4979339;28;20198;-89
2022/04/19 03:37:52;;;;;;;6.57;5.47;;;3.90;79.20;;;;;;4979360;28;20184;-90
2022/04/19 03:40:18;;;;;;;7.13;5.77;;;3.90;79.30;;;;;;4979353;28;20188;-90
2022/04/19 03:42:43;;;;;;;7.50;6.00;;;3.70;79.80;;;;;;4979275;28;20174;-90
2022/04/19 03:45:10;;;;;;;6.80;5.60;;;3.60;80.20;;;;;;4996583;28;20197;-90
2022/04/19 03:47:36;;;;;;;8.60;6.20;;;3.40;80.70;;;;;;4979976;28;20190;-90
2022/04/19 03:50:02;;;;;;;10.10;6.30;;;3.30;81.20;;;;;;4979105;28;20181;-90
2022/04/19 03:52:27;;;;;;;8.70;6.10;;;3.20;81.90;;;;;;4996281;28;20194;-90
2022/04/19 03:54:53;;;;;;;8.13;6.23;;;3.00;82.30;;;;;;4979013;28;20194;-90
2022/04/19 03:57:19;;;;;;;6.77;5.67;;;2.90;82.80;;;;;;4979131;28;20274;-89
2022/04/19 03:59:44;;;;;;;8.07;5.97;;;2.80;83.20;;;;;;4979062;28;20291;-90
2022/04/19 04:02:10;;;;;;;7.90;6.43;;;2.80;83.60;;;;;;4996330;28;20187;-90
2022/04/19 04:04:36;;;;;;;10.60;6.97;;;2.70;83.80;;;;;;4979099;28;20221;-90
2022/04/19 04:07:06;;;;;;;10.13;7.47;;;2.70;83.90;;;;;;4978915;28;20183;-90
2022/04/19 04:09:35;;;;;;;11.80;8.27;;;2.70;84.00;;;;;;4978691;28;20268;-90
2022/04/19 04:12:02;;;;;;;12.80;7.50;;;2.60;84.10;;;;;;4996075;28;20292;-90
2022/04/19 04:14:29;;;;;;;10.33;7.17;;;2.60;84.20;;;;;;4978670;28;20197;-90
2022/04/19 04:16:54;;;;;;;15.90;7.63;;;2.40;84.20;;;;;;4978647;28;20675;-90
2022/04/19 04:19:20;;;;;;;9.87;6.73;;;2.30;84.40;;;;;;4978640;28;20174;-89
2022/04/19 04:21:45;;;;;;;13.17;7.43;;;2.30;84.60;;;;;;4978613;28;20198;-89
2022/04/19 04:24:11;;;;;;;11.00;7.70;;;2.30;84.70;;;;;;4978426;28;20241;-90
2022/04/19 04:26:36;;;;;;;13.77;7.33;;;2.30;84.70;;;;;;4978501;28;20178;-90
2022/04/19 04:29:02;;;;;;;10.50;7.80;;;2.30;84.80;;;;;;4995807;28;20210;-90
2022/04/19 04:31:28;;;;;;;12.67;7.07;;;2.30;84.80;;;;;;4978435;28;20184;-90
2022/04/19 04:33:53;;;;;;;13.93;6.87;;;2.40;84.80;;;;;;4978291;28;20707;-90
2022/04/19 04:36:19;;;;;;;16.57;6.73;;;2.50;84.60;;;;;;4977428;28;20211;-90
2022/04/19 04:38:45;;;;;;;12.70;6.53;;;2.60;84.50;;;;;;4978575;28;20182;-90
2022/04/19 09:27:57;;;;;;;6.80;4.27;;;12.60;55.50;;;;;;577895;23;20501;-90
2022/04/19 09:30:31;;;;;;;10.47;4.73;;;12.60;56.30;;;;;;4807105;29;20234;-90
2022/04/19 09:33:20;;;;;;;12.17;5.47;;;12.80;56.00;;;;;;4809525;29;20681;-90
2022/04/19 09:36:04;;;;;;;9.77;4.87;;;12.80;54.60;;;;;;4808948;29;20329;-90
2022/04/19 09:39:11;;;;;;;8.40;5.17;;;12.80;55.20;;;;;;4809134;29;20184;-90
2022/04/19 09:42:08;;;;;;;8.77;4.50;;;12.90;54.40;;;;;;4806928;29;20192;-90
2022/04/19 09:45:10;;;;;;;7.63;5.40;;;12.90;53.80;;;;;;4786911;29;20218;-90
2022/04/19 10:09:05;;;;;;;9.43;5.67;;;13.90;52.90;;;;;;4847854;29;20223;-91
2022/04/19 10:11:32;;;;;;;11.10;5.70;;;14.10;53.90;;;;;;4829530;29;20207;-92
2022/04/19 10:13:59;;;;;;;9.87;5.80;;;13.90;49.90;;;;;;4825103;29;20257;-91
2022/04/19 10:16:27;;;;;;;9.00;5.87;;;14.20;52.70;;;;;;4809403;29;20187;-91
2022/04/19 10:18:53;;;;;;;8.90;5.60;;;14.40;53.60;;;;;;4810024;29;20196;-91
2022/04/19 10:21:23;;;;;;;9.40;5.73;;;14.50;53.20;;;;;;4808909;29;20187;-92
2022/04/19 10:23:49;;;;;;;9.60;5.67;;;14.40;50.90;;;;;;4810086;29;20188;-92
2022/04/19 10:26:23;;;;;;;8.07;5.23;;;14.50;51.10;;;;;;4809727;29;20184;-91
2022/04/19 10:28:51;;;;;;;6.17;4.83;;;14.60;53.20;;;;;;4809863;29;20187;-91
2022/04/19 10:31:30;;;;;;;9.50;5.17;;;14.40;50.20;;;;;;4809062;29;20195;-90
2022/04/19 10:34:06;;;;;;;9.67;5.93;;;14.40;50.40;;;;;;4809748;29;20219;-90
2022/04/19 10:36:39;;;;;;;9.53;6.17;;;14.50;51.00;;;;;;4812344;29;20182;-90
2022/04/19 10:39:11;;;;;;;12.17;6.07;;;14.80;51.30;;;;;;4813475;29;20225;-91
2022/04/19 10:41:57;;;;;;;7.93;4.60;;;15.00;49.90;;;;;;4816701;29;20224;-91
2022/04/19 10:44:29;;;;;;;9.23;5.07;;;15.20;47.20;;;;;;4812136;29;20203;-91
2022/04/19 10:47:05;;;;;;;6.50;4.40;;;15.00;47.90;;;;;;4812766;29;20214;-91
2022/04/19 10:49:30;;;;;;;7.97;4.00;;;15.20;46.40;;;;;;4812132;29;20172;-91
2022/04/19 10:52:00;;;;;;;7.90;4.43;;;15.00;45.80;;;;;;4812917;29;20252;-92
2022/04/19 10:55:03;;;;;;;8.83;3.90;;;15.20;49.90;;;;;;4812418;29;20231;-91
2022/04/19 10:58:17;;;;;;;8.53;4.23;;;15.20;45.20;;;;;;4812657;29;20180;-91
2022/04/19 11:00:56;;;;;;;6.80;4.40;;;15.20;46.00;;;;;;4813954;29;20274;-91
2022/04/19 11:03:35;;;;;;;10.17;5.37;;;15.20;45.60;;;;;;4812524;29;20184;-88
2022/04/19 11:06:03;;;;;;;8.57;5.23;;;15.30;45.90;;;;;;4827356;29;20260;-88
2022/04/19 11:08:31;;;;;;;9.33;5.30;;;15.30;46.60;;;;;;4811052;29;20570;-88
2022/04/19 11:11:04;;;;;;;7.40;4.30;;;15.50;47.20;;;;;;4811100;29;20191;-88
2022/04/19 11:13:40;;;;;;;8.13;4.50;;;15.50;45.00;;;;;;4811098;29;20204;-89
2022/04/19 11:16:06;;;;;;;5.43;4.20;;;15.40;45.60;;;;;;4811619;29;20534;-88
2022/04/19 11:18:32;;;;;;;5.23;3.90;;;15.50;45.40;;;;;;4811064;29;20196;-88
2022/04/19 11:21:03;;;;;;;5.73;3.93;;;15.70;47.50;;;;;;4827227;29;20176;-88
2022/04/19 11:23:43;;;;;;;3.60;3.03;;;15.80;46.70;;;;;;4810980;29;20207;-88
2022/04/19 11:26:34;;;;;;;6.97;4.50;;;15.60;45.60;;;;;;4810899;29;20561;-88
2022/04/19 11:29:11;;;;;;;6.20;2.73;;;15.60;47.80;;;;;;4827052;29;20187;-88
2022/04/19 11:31:57;;;;;;;5.30;3.13;;;15.60;47.00;;;;;;4810924;29;20190;-88
2022/04/19 11:34:23;;;;;;;7.00;4.30;;;15.50;45.20;;;;;;4810560;29;20211;-88
2022/04/19 11:36:49;;;;;;;4.03;3.20;;;15.50;46.80;;;;;;4810987;29;20655;-89
2022/04/19 11:47:47;;;;;;;7.17;4.00;;;15.70;45.40;;;;;;4827357;29;20687;-88
2022/04/19 11:50:32;;;;;;;6.60;4.23;;;15.80;49.10;;;;;;4810769;29;20184;-88
2022/04/19 11:52:58;;;;;;;7.77;4.20;;;15.70;45.90;;;;;;4826639;29;20207;-87
2022/04/19 11:55:27;;;;;;;7.27;4.20;;;15.90;46.30;;;;;;4811178;29;20216;-88
2022/04/19 11:58:03;;;;;;;6.57;4.20;;;15.90;47.50;;;;;;4810312;29;20188;-88
2022/04/19 12:00:28;;;;;;;5.03;3.57;;;16.00;45.90;;;;;;4810290;29;20714;-89
2022/04/19 12:02:54;;;;;;;7.73;5.00;;;16.00;44.10;;;;;;4810325;29;20184;-87
2022/04/19 12:05:26;;;;;;;5.10;3.80;;;16.00;45.40;;;;;;4810252;29;20200;-88
2022/04/19 12:07:55;;;;;;;8.00;4.50;;;16.10;45.70;;;;;;4826337;29;20260;-88
2022/04/19 12:10:21;;;;;;;6.93;4.20;;;15.80;45.00;;;;;;4810043;29;20698;-87
2022/04/19 12:12:48;;;;;;;6.73;4.77;;;16.00;45.70;;;;;;4810114;29;20245;-87
2022/04/19 12:15:41;;;;;;;5.90;3.77;;;15.90;45.00;;;;;;4810090;29;20204;-87
2022/04/19 12:18:07;;;;;;;7.40;4.50;;;16.00;45.20;;;;;;4810150;29;20309;-87
2022/04/19 12:20:51;;;;;;;7.47;3.97;;;15.90;44.90;;;;;;4809957;29;20191;-87
2022/04/19 12:23:20;;;;;;;8.23;4.33;;;15.90;45.90;;;;;;4809972;29;20271;-87
2022/04/19 12:25:59;;;;;;;7.50;3.97;;;16.00;45.70;;;;;;4809740;29;20216;-88
2022/04/19 12:28:44;;;;;;;6.67;3.10;;;15.80;45.20;;;;;;4826375;29;20213;-85
2022/04/19 12:31:32;;;;;;;5.17;3.40;;;15.90;44.10;;;;;;4809767;29;20184;-86
2022/04/19 12:33:59;;;;;;;3.87;2.70;;;16.10;46.10;;;;;;4809608;29;20272;-87
2022/04/19 12:36:26;;;;;;;5.83;3.17;;;16.00;44.50;;;;;;4809830;29;20180;-88
2022/04/19 12:39:00;;;;;;;3.00;2.27;;;16.20;44.90;;;;;;4826008;29;20172;-86
2022/04/19 12:41:46;;;;;;;4.20;2.37;;;15.90;43.10;;;;;;4809727;29;20266;-88
2022/04/19 12:44:16;;;;;;;1.77;1.47;;;16.00;43.80;;;;;;4809616;29;20303;-87
2022/04/19 12:46:47;;;;;;;2.53;1.70;;;15.90;43.60;;;;;;4809522;29;20219;-87
2022/04/19 12:49:29;;;;;;;2.00;1.77;;;15.80;44.80;;;;;;4809601;29;20206;-87
2022/04/19 12:52:02;;;;;;;2.93;1.90;;;15.90;45.20;;;;;;4809431;29;20248;-87
2022/04/19 12:54:29;;;;;;;1.93;1.17;;;15.80;44.20;;;;;;4825581;29;20276;-87
2022/04/19 12:57:02;;;;;;;2.50;2.10;;;15.90;45.10;;;;;;4808615;29;20271;-87
2022/04/19 12:59:33;;;;;;;2.80;2.03;;;15.80;45.00;;;;;;4809440;29;20752;-87
2022/04/19 13:01:59;;;;;;;3.67;2.17;;;15.90;46.70;;;;;;4825611;29;20211;-88
2022/04/19 13:04:25;;;;;;;2.37;2.03;;;16.00;44.80;;;;;;4809171;29;20547;-88
2022/04/19 13:12:22;;;;;;;2.90;2.10;;;15.90;44.10;;;;;;4825955;29;20234;-88
2022/04/19 13:14:49;;;;;;;2.67;1.90;;;16.20;45.70;;;;;;4825417;29;20192;-88
2022/04/19 13:17:15;;;;;;;3.77;2.07;;;16.10;45.00;;;;;;4809019;29;20187;-88
2022/04/19 13:19:41;;;;;;;4.28;2.30;;;16.10;47.70;;;;;;4808985;29;20204;-87
2022/04/19 13:22:08;;;;;;;1.63;1.53;;;15.80;44.30;;;;;;4808865;29;20316;-88
2022/04/19 13:24:34;;;;;;;3.83;2.03;;;16.00;46.50;;;;;;4808780;29;20256;-88
2022/04/19 13:26:59;;;;;;;2.30;1.60;;;16.10;46.10;;;;;;4809393;29;20278;-87
2022/04/19 13:29:25;;;;;;;3.10;1.80;;;16.00;45.50;;;;;;4825380;29;20172;-88
2022/04/19 13:31:52;;;;;;;1.90;1.73;;;16.10;45.70;;;;;;4808833;29;20180;-88
2022/04/19 13:34:19;;;;;;;3.63;1.50;;;16.00;44.10;;;;;;4826660;29;20227;-89
2022/04/19 13:36:45;;;;;;;4.40;1.93;;;16.20;45.70;;;;;;4825098;29;20186;-88
2022/04/19 13:39:11;;;;;;;2.10;1.83;;;15.90;45.80;;;;;;4824962;29;20180;-88
2022/04/19 13:41:41;;;;;;;2.60;1.40;;;15.70;43.90;;;;;;4808731;29;20647;-89
2022/04/19 13:44:10;;;;;;;1.20;1.10;;;16.00;42.90;;;;;;4808542;29;20192;-89
2022/04/19 13:46:42;;;;;;;1.73;1.30;;;15.90;43.20;;;;;;4794272;29;20210;-89
2022/04/19 13:49:08;;;;;;;1.47;1.10;;;15.70;42.50;;;;;;4808552;29;20274;-89
2022/04/19 13:51:35;;;;;;;2.10;1.60;;;15.90;44.00;;;;;;4808593;29;20587;-89
2022/04/19 13:54:03;;;;;;;2.87;1.30;;;16.00;44.40;;;;;;4808354;29;20668;-88
2022/04/19 13:56:29;;;;;;;1.67;1.53;;;16.00;42.50;;;;;;4808411;29;20184;-88
2022/04/19 13:58:55;;;;;;;3.17;1.40;;;15.90;41.20;;;;;;4808348;29;20195;-88
2022/04/19 14:01:22;;;;;;;1.20;1.10;;;16.00;42.20;;;;;;4808365;29;20188;-88
2022/04/19 14:03:48;;;;;;;2.50;1.77;;;15.90;40.10;;;;;;4824655;29;20604;-88
2022/04/19 14:06:14;;;;;;;1.80;1.10;;;16.00;40.80;;;;;;4808676;29;20188;-88
2022/04/19 14:08:39;;;;;;;2.10;1.10;;;15.90;39.90;;;;;;4807966;29;20302;-88
2022/04/19 14:11:05;;;;;;;1.73;1.40;;;15.90;40.00;;;;;;4808230;29;20275;-88
2022/04/19 14:13:32;;;;;;;2.53;1.30;;;15.80;40.80;;;;;;4808228;29;20246;-87
2022/04/19 14:15:57;;;;;;;3.37;1.13;;;15.90;41.50;;;;;;4824522;29;20227;-88
2022/04/19 14:18:23;;;;;;;1.67;1.47;;;16.00;40.10;;;;;;4808273;29;20705;-88
2022/04/19 14:20:50;;;;;;;3.77;1.53;;;15.90;40.70;;;;;;4808149;29;20172;-88
2022/04/19 14:23:16;;;;;;;3.23;1.40;;;15.70;39.50;;;;;;4808023;29;20309;-87
2022/04/19 14:25:42;;;;;;;1.23;1.10;;;15.70;38.10;;;;;;4809389;29;20233;-90
2022/04/19 14:28:08;;;;;;;1.30;1.20;;;15.80;39.70;;;;;;4825254;29;20651;-87
2022/04/19 14:33:21;;;;;;;3.27;1.50;;;15.80;38.40;;;;;;4824745;29;20225;-88
2022/04/19 14:35:48;;;;;;;1.50;0.97;;;15.80;36.90;;;;;;4824432;29;20679;-88
2022/04/19 14:38:15;;;;;;;0.83;0.83;;;15.60;35.70;;;;;;4808140;29;20184;-88
2022/04/19 14:40:42;;;;;;;2.60;0.93;;;15.70;35.40;;;;;;4808269;29;20565;-87
2022/04/19 14:43:07;;;;;;;1.83;1.10;;;15.50;35.20;;;;;;4807948;29;20259;-87
2022/04/19 14:45:33;;;;;;;1.10;0.90;;;15.50;38.30;;;;;;4824288;29;20236;-88
2022/04/19 14:47:59;;;;;;;0.90;0.80;;;15.40;35.50;;;;;;4824670;29;20180;-88
2022/04/19 14:50:24;;;;;;;1.40;0.60;;;15.40;36.10;;;;;;4824258;29;20237;-87
2022/04/19 14:52:50;;;;;;;2.23;0.90;;;15.40;35.70;;;;;;4824092;29;20215;-88
2022/04/19 14:55:15;;;;;;;0.67;0.67;;;15.20;33.60;;;;;;4807807;29;20675;-88
2022/04/19 14:57:44;;;;;;;0.73;0.73;;;15.20;34.20;;;;;;4808191;29;20244;-87
2022/04/19 15:00:10;;;;;;;2.13;1.00;;;15.20;35.60;;;;;;4807781;29;20181;-87
2022/04/19 15:02:36;;;;;;;2.17;1.10;;;15.20;34.60;;;;;;4807614;29;20704;-87
2022/04/19 15:05:04;;;;;;;2.90;1.10;;;15.10;34.30;;;;;;4807687;29;20216;-88
2022/04/19 15:07:34;;;;;;;6.50;1.60;;;15.00;34.80;;;;;;4807578;29;20234;-88
2022/04/19 15:10:01;;;;;;;1.30;1.20;;;15.10;35.00;;;;;;4807937;29;20215;-88
2022/04/19 15:12:28;;;;;;;3.70;1.10;;;15.00;35.20;;;;;;4823845;29;20255;-88
2022/04/19 15:14:54;;;;;;;2.47;1.20;;;15.00;35.00;;;;;;4807650;29;20219;-88
2022/04/19 15:17:20;;;;;;;2.90;1.20;;;14.90;36.00;;;;;;4807606;29;20184;-87
2022/04/19 15:19:45;;;;;;;1.43;1.33;;;14.80;33.90;;;;;;4824811;29;20190;-87
2022/04/19 15:22:11;;;;;;;2.33;1.37;;;14.90;35.80;;;;;;4827232;29;20188;-87
2022/04/19 15:24:38;;;;;;;3.27;1.87;;;15.00;35.30;;;;;;4810941;29;20211;-87
2022/04/19 15:27:04;;;;;;;1.93;1.60;;;14.70;35.40;;;;;;4810802;29;20192;-88
2022/04/19 15:29:30;;;;;;;1.40;1.30;;;14.80;35.00;;;;;;4810857;29;20537;-87
2022/04/19 15:31:57;;;;;;;5.03;1.67;;;14.60;33.40;;;;;;4811617;29;20180;-88
2022/04/19 15:34:22;;;;;;;1.77;1.50;;;14.50;34.00;;;;;;4810575;29;20228;-87
2022/04/19 15:36:48;;;;;;;3.23;1.80;;;14.50;33.70;;;;;;4827005;29;20283;-88
2022/04/19 15:39:14;;;;;;;2.70;2.00;;;14.40;34.40;;;;;;4810707;29;20184;-87
2022/04/19 15:41:39;;;;;;;1.63;1.53;;;14.30;33.20;;;;;;4810635;29;20184;-88
2022/04/19 15:44:05;;;;;;;2.03;1.40;;;14.30;33.30;;;;;;4810653;29;20236;-88
2022/04/19 15:46:31;;;;;;;4.27;2.30;;;14.30;32.90;;;;;;4810511;29;20675;-87
2022/04/19 15:48:56;;;;;;;1.93;1.73;;;14.20;33.40;;;;;;4826791;29;20181;-88
2022/04/19 15:51:22;;;;;;;2.40;2.03;;;14.30;32.90;;;;;;4810344;29;20240;-88
2022/04/19 15:53:47;;;;;;;3.13;2.83;;;14.20;33.80;;;;;;4826529;29;20208;-88
2022/04/19 15:56:13;;;;;;;5.70;2.73;;;14.10;34.40;;;;;;4826573;29;20651;-88
2022/04/19 15:58:39;;;;;;;5.33;2.90;;;14.00;34.90;;;;;;4810360;29;20228;-87
2022/04/19 16:01:06;;;;;;;8.03;3.37;;;14.00;35.70;;;;;;4811072;29;20236;-90
2022/04/19 16:03:32;;;;;;;4.33;3.07;;;14.00;36.20;;;;;;4810305;29;20188;-89
2022/04/19 16:05:57;;;;;;;4.50;3.43;;;14.00;36.60;;;;;;4810839;29;20646;-90
2022/04/19 16:08:23;;;;;;;16.00;2.47;;;14.00;37.30;;;;;;4810260;29;20239;-91
2022/04/19 16:10:49;;;;;;;4.67;3.23;;;13.90;35.50;;;;;;4810241;29;20282;-90
2022/04/19 16:13:15;;;;;;;4.13;2.77;;;13.90;37.50;;;;;;4810303;29;20208;-90
2022/04/19 16:15:41;;;;;;;3.17;2.43;;;14.00;39.80;;;;;;4810202;29;20200;-90
2022/04/19 16:23:36;;;;;;;3.27;2.90;;;13.70;38.70;;;;;;4826475;29;20210;-90
2022/04/19 16:26:03;;;;;;;4.97;2.73;;;13.70;39.50;;;;;;4826502;29;20219;-90
2022/04/19 16:28:32;;;;;;;5.60;3.30;;;13.70;40.70;;;;;;4810432;29;20655;-89
2022/04/19 16:30:59;;;;;;;3.50;3.20;;;13.60;41.00;;;;;;4809267;29;20192;-90
2022/04/19 16:33:28;;;;;;;5.83;3.20;;;13.40;40.90;;;;;;4811896;29;20268;-91
2022/04/19 16:35:54;;;;;;;4.23;3.03;;;13.40;41.40;;;;;;4810146;29;20257;-89
2022/04/19 16:38:20;;;;;;;8.17;3.20;;;13.30;41.30;;;;;;4809596;29;20220;-89
2022/04/19 16:40:49;;;;;;;5.23;3.60;;;13.20;42.00;;;;;;4826191;29;20218;-89
2022/04/19 16:43:15;;;;;;;8.43;3.20;;;13.20;43.90;;;;;;4825963;29;20186;-89
2022/04/19 16:45:41;;;;;;;5.00;3.73;;;13.10;42.20;;;;;;4809514;29;20589;-88
2022/04/19 16:48:07;;;;;;;4.67;3.73;;;13.00;43.50;;;;;;4810493;29;20275;-90
2022/04/19 16:50:34;;;;;;;5.20;3.80;;;12.90;43.40;;;;;;4809392;29;20196;-89
2022/04/19 16:53:01;;;;;;;4.40;3.37;;;12.80;43.00;;;;;;4809682;29;20803;-89
2022/04/19 16:55:28;;;;;;;4.87;3.43;;;12.80;43.90;;;;;;4825774;29;20628;-89
2022/04/19 16:57:57;;;;;;;6.00;3.40;;;12.80;42.80;;;;;;4810269;29;20233;-90
2022/04/19 17:00:25;;;;;;;5.00;3.40;;;12.70;44.00;;;;;;4809397;29;20184;-90
2022/04/19 17:02:51;;;;;;;3.60;2.93;;;12.60;43.20;;;;;;4809391;29;20199;-89
2022/04/19 17:05:17;;;;;;;5.50;3.40;;;12.50;44.50;;;;;;4825505;29;20208;-89
2022/04/19 17:07:44;;;;;;;4.23;3.27;;;12.40;45.30;;;;;;4809299;29;20208;-90
2022/04/19 17:10:09;;;;;;;4.90;3.10;;;12.30;43.70;;;;;;4809725;29;20250;-90
2022/04/19 17:12:44;;;;;;;5.43;3.70;;;12.20;46.40;;;;;;4812205;29;20277;-89
2022/04/19 17:15:09;;;;;;;5.50;3.40;;;12.10;45.90;;;;;;4811756;29;20251;-89
2022/04/19 17:17:35;;;;;;;6.60;3.97;;;12.10;45.90;;;;;;4808968;29;20655;-89
2022/04/19 17:20:01;;;;;;;4.93;3.23;;;12.00;46.90;;;;;;4816439;29;20193;-90
2022/04/19 17:22:27;;;;;;;3.93;3.13;;;11.90;44.60;;;;;;4809423;29;20188;-91
2022/04/19 17:25:15;;;;;;;4.50;2.67;;;11.80;44.70;;;;;;4812570;29;20208;-90
2022/04/19 17:27:42;;;;;;;5.10;2.60;;;11.70;45.20;;;;;;4810200;29;20177;-90
2022/04/19 17:30:08;;;;;;;9.33;3.13;;;11.60;45.00;;;;;;4809678;29;20184;-90
2022/04/19 17:32:34;;;;;;;3.13;2.50;;;11.50;44.90;;;;;;4808813;29;20711;-90
2022/04/19 17:35:00;;;;;;;4.93;2.60;;;11.40;45.40;;;;;;4825548;29;20199;-91
2022/04/19 17:37:26;;;;;;;4.27;2.87;;;11.40;44.70;;;;;;4808725;29;20179;-89
2022/04/19 17:39:52;;;;;;;4.57;2.40;;;11.30;45.80;;;;;;4809099;29;20176;-90
2022/04/19 17:42:17;;;;;;;4.60;2.77;;;11.30;46.40;;;;;;4808498;29;20183;-90
2022/04/19 17:44:43;;;;;;;3.60;1.93;;;11.20;46.80;;;;;;4808643;29;20264;-89
2022/04/19 17:47:09;;;;;;;4.07;2.30;;;11.10;47.20;;;;;;4808690;29;20184;-89
2022/04/19 17:49:35;;;;;;;5.57;2.60;;;11.10;47.90;;;;;;4809273;29;20547;-89
2022/04/19 17:57:36;;;;;;;5.17;2.90;;;10.80;49.10;;;;;;4817253;29;20195;-88
2022/04/19 18:00:02;;;;;;;6.70;2.60;;;10.70;50.70;;;;;;4824920;29;20552;-89
2022/04/19 18:02:29;;;;;;;3.20;2.47;;;10.60;49.60;;;;;;4808334;29;20670;-89
2022/04/19 18:04:56;;;;;;;4.37;2.90;;;10.60;49.60;;;;;;4808539;29;20240;-89
2022/04/19 18:07:21;;;;;;;4.33;3.07;;;10.60;50.40;;;;;;4824768;29;20191;-89
2022/04/19 18:09:47;;;;;;;6.00;3.10;;;10.50;50.90;;;;;;4808288;29;20188;-88
2022/04/19 18:12:12;;;;;;;4.53;2.73;;;10.40;51.70;;;;;;4808913;29;20195;-88
2022/04/19 18:14:38;;;;;;;6.13;2.97;;;10.30;51.90;;;;;;4808150;29;20211;-88
2022/04/19 18:17:04;;;;;;;5.00;2.57;;;10.20;52.90;;;;;;4808268;29;20188;-88
2022/04/19 18:19:30;;;;;;;5.60;2.83;;;10.20;52.60;;;;;;4808234;29;20191;-88
2022/04/19 18:27:24;;;;;;;5.80;2.97;;;9.80;55.30;;;;;;4824960;29;20172;-89
2022/04/19 18:29:50;;;;;;;3.13;2.67;;;9.80;55.30;;;;;;4824368;29;20195;-88
2022/04/19 18:32:16;;;;;;;3.80;2.77;;;9.80;55.20;;;;;;4807983;29;20184;-89
2022/04/19 18:34:42;;;;;;;3.53;3.10;;;9.80;55.90;;;;;;4807877;29;20605;-88
2022/04/19 18:37:07;;;;;;;3.77;2.60;;;9.70;56.40;;;;;;4807948;29;20559;-88
2022/04/19 18:39:34;;;;;;;7.70;3.60;;;9.50;56.90;;;;;;4808771;29;20188;-88
2022/04/19 18:41:59;;;;;;;5.57;2.93;;;9.60;56.50;;;;;;4807858;29;20184;-88
2022/04/19 18:44:25;;;;;;;5.40;2.70;;;9.50;57.10;;;;;;4807907;29;20299;-88
2022/04/19 18:46:50;;;;;;;6.23;2.67;;;9.40;57.80;;;;;;4807767;29;20184;-88